sensor_id;sensor_type;location;lat;lon;timestamp;P1;durP1;ratioP1;P2;durP2;ratioP2
67053;SDS011;53960;51.826;5.850;2022-09-21T00:02:01;8.63;;;1.90;;
67053;SDS011;53960;51.826;5.850;2022-09-21T00:04:26;6.90;;;1.80;;
67053;SDS011;53960;51.826;5.850;2022-09-21T00:06:52;8.68;;;2.00;;
67053;SDS011;53960;51.826;5.850;2022-09-21T00:09:17;9.57;;;1.87;;
67053;SDS011;53960;51.826;5.850;2022-09-21T00:11:43;8.73;;;2.10;;
67053;SDS011;53960;51.826;5.850;2022-09-21T00:14:09;7.00;;;1.73;;
67053;SDS011;53960;51.826;5.850;2022-09-21T00:16:38;7.75;;;1.90;;
67053;SDS011;53960;51.826;5.850;2022-09-21T00:19:07;9.18;;;2.00;;
67053;SDS011;53960;51.826;5.850;2022-09-21T00:21:34;7.82;;;1.90;;
67053;SDS011;53960;51.826;5.850;2022-09-21T00:24:00;6.72;;;1.95;;
67053;SDS011;53960;51.826;5.850;2022-09-21T00:26:27;9.30;;;2.03;;
67053;SDS011;53960;51.826;5.850;2022-09-21T00:28:53;7.45;;;1.85;;
67053;SDS011;53960;51.826;5.850;2022-09-21T00:31:21;6.85;;;1.80;;
67053;SDS011;53960;51.826;5.850;2022-09-21T00:33:46;9.43;;;2.30;;
67053;SDS011;53960;51.826;5.850;2022-09-21T00:36:14;8.48;;;2.28;;
67053;SDS011;53960;51.826;5.850;2022-09-21T00:38:41;8.07;;;2.05;;
67053;SDS011;53960;51.826;5.850;2022-09-21T00:41:07;7.72;;;1.70;;
67053;SDS011;53960;51.826;5.850;2022-09-21T00:43:34;8.00;;;1.70;;
67053;SDS011;53960;51.826;5.850;2022-09-21T00:46:05;8.48;;;1.70;;
67053;SDS011;53960;51.826;5.850;2022-09-21T00:48:38;8.15;;;2.00;;
67053;SDS011;53960;51.826;5.850;2022-09-21T00:51:05;6.50;;;2.00;;
67053;SDS011;53960;51.826;5.850;2022-09-21T00:53:33;11.57;;;1.90;;
67053;SDS011;53960;51.826;5.850;2022-09-21T00:55:59;8.30;;;1.77;;
67053;SDS011;53960;51.826;5.850;2022-09-21T00:58:30;6.53;;;1.90;;
67053;SDS011;53960;51.826;5.850;2022-09-21T01:01:04;7.35;;;1.80;;
67053;SDS011;53960;51.826;5.850;2022-09-21T01:03:30;6.73;;;1.90;;
67053;SDS011;53960;51.826;5.850;2022-09-21T01:05:56;9.13;;;1.88;;
67053;SDS011;53960;51.826;5.850;2022-09-21T01:08:22;8.57;;;2.40;;
67053;SDS011;53960;51.826;5.850;2022-09-21T01:16:19;6.95;;;2.28;;
67053;SDS011;53960;51.826;5.850;2022-09-21T01:21:42;7.28;;;2.13;;
67053;SDS011;53960;51.826;5.850;2022-09-21T01:30:16;10.68;;;2.67;;
67053;SDS011;53960;51.826;5.850;2022-09-21T01:32:51;8.65;;;2.42;;
67053;SDS011;53960;51.826;5.850;2022-09-21T01:35:27;8.77;;;2.25;;
67053;SDS011;53960;51.826;5.850;2022-09-21T01:38:09;7.60;;;2.50;;
67053;SDS011;53960;51.826;5.850;2022-09-21T01:40:40;10.32;;;2.50;;
67053;SDS011;53960;51.826;5.850;2022-09-21T01:43:08;7.30;;;2.08;;
67053;SDS011;53960;51.826;5.850;2022-09-21T01:45:38;9.30;;;1.92;;
67053;SDS011;53960;51.826;5.850;2022-09-21T01:48:07;7.78;;;2.30;;
67053;SDS011;53960;51.826;5.850;2022-09-21T01:50:37;9.27;;;2.43;;
67053;SDS011;53960;51.826;5.850;2022-09-21T01:53:09;9.75;;;2.33;;
67053;SDS011;53960;51.826;5.850;2022-09-21T01:58:44;8.68;;;2.47;;
67053;SDS011;53960;51.826;5.850;2022-09-21T02:01:15;9.43;;;2.20;;
67053;SDS011;53960;51.826;5.850;2022-09-21T02:03:45;7.97;;;2.08;;
67053;SDS011;53960;51.826;5.850;2022-09-21T02:06:15;6.85;;;2.20;;
67053;SDS011;53960;51.826;5.850;2022-09-21T02:08:42;7.95;;;2.25;;
67053;SDS011;53960;51.826;5.850;2022-09-21T02:11:08;8.18;;;2.17;;
67053;SDS011;53960;51.826;5.850;2022-09-21T02:13:37;6.80;;;2.40;;
67053;SDS011;53960;51.826;5.850;2022-09-21T02:21:30;7.68;;;2.13;;
67053;SDS011;53960;51.826;5.850;2022-09-21T02:24:08;11.98;;;2.30;;
67053;SDS011;53960;51.826;5.850;2022-09-21T02:26:39;8.63;;;2.33;;
67053;SDS011;53960;51.826;5.850;2022-09-21T02:29:17;7.40;;;2.10;;
67053;SDS011;53960;51.826;5.850;2022-09-21T02:31:58;9.10;;;2.40;;
67053;SDS011;53960;51.826;5.850;2022-09-21T02:34:34;8.57;;;2.38;;
67053;SDS011;53960;51.826;5.850;2022-09-21T02:37:20;8.70;;;2.10;;
67053;SDS011;53960;51.826;5.850;2022-09-21T02:39:59;9.20;;;2.30;;
67053;SDS011;53960;51.826;5.850;2022-09-21T02:42:33;8.68;;;2.13;;
67053;SDS011;53960;51.826;5.850;2022-09-21T02:45:07;6.87;;;2.20;;
67053;SDS011;53960;51.826;5.850;2022-09-21T02:47:46;9.60;;;2.85;;
67053;SDS011;53960;51.826;5.850;2022-09-21T02:50:19;8.85;;;1.90;;
67053;SDS011;53960;51.826;5.850;2022-09-21T02:52:48;7.78;;;1.90;;
67053;SDS011;53960;51.826;5.850;2022-09-21T02:55:15;8.77;;;1.98;;
67053;SDS011;53960;51.826;5.850;2022-09-21T02:57:41;9.40;;;1.60;;
67053;SDS011;53960;51.826;5.850;2022-09-21T03:00:08;7.50;;;1.60;;
67053;SDS011;53960;51.826;5.850;2022-09-21T03:02:35;7.57;;;1.80;;
67053;SDS011;53960;51.826;5.850;2022-09-21T03:05:01;7.28;;;2.38;;
67053;SDS011;53960;51.826;5.850;2022-09-21T03:07:27;7.60;;;1.87;;
67053;SDS011;53960;51.826;5.850;2022-09-21T03:09:52;6.27;;;1.70;;
67053;SDS011;53960;51.826;5.850;2022-09-21T03:12:18;8.27;;;1.88;;
67053;SDS011;53960;51.826;5.850;2022-09-21T03:14:44;9.67;;;1.93;;
67053;SDS011;53960;51.826;5.850;2022-09-21T03:17:09;10.73;;;2.00;;
67053;SDS011;53960;51.826;5.850;2022-09-21T03:19:35;6.20;;;1.73;;
67053;SDS011;53960;51.826;5.850;2022-09-21T03:22:00;7.10;;;1.90;;
67053;SDS011;53960;51.826;5.850;2022-09-21T03:24:25;9.67;;;2.47;;
67053;SDS011;53960;51.826;5.850;2022-09-21T03:27:09;8.18;;;1.98;;
67053;SDS011;53960;51.826;5.850;2022-09-21T03:29:34;8.80;;;1.80;;
67053;SDS011;53960;51.826;5.850;2022-09-21T03:32:00;7.43;;;2.00;;
67053;SDS011;53960;51.826;5.850;2022-09-21T03:34:25;7.00;;;1.83;;
67053;SDS011;53960;51.826;5.850;2022-09-21T03:36:51;6.73;;;1.80;;
67053;SDS011;53960;51.826;5.850;2022-09-21T03:39:16;9.70;;;1.90;;
67053;SDS011;53960;51.826;5.850;2022-09-21T03:41:41;9.00;;;2.03;;
67053;SDS011;53960;51.826;5.850;2022-09-21T03:44:07;6.80;;;1.80;;
67053;SDS011;53960;51.826;5.850;2022-09-21T03:46:32;8.07;;;2.00;;
67053;SDS011;53960;51.826;5.850;2022-09-21T03:49:00;7.90;;;1.90;;
67053;SDS011;53960;51.826;5.850;2022-09-21T03:51:26;6.85;;;1.90;;
67053;SDS011;53960;51.826;5.850;2022-09-21T03:53:52;6.97;;;1.73;;
67053;SDS011;53960;51.826;5.850;2022-09-21T03:56:17;8.77;;;2.10;;
67053;SDS011;53960;51.826;5.850;2022-09-21T03:58:43;7.87;;;1.70;;
67053;SDS011;53960;51.826;5.850;2022-09-21T04:01:08;7.53;;;2.13;;
67053;SDS011;53960;51.826;5.850;2022-09-21T04:03:34;8.13;;;2.10;;
67053;SDS011;53960;51.826;5.850;2022-09-21T04:05:59;7.23;;;1.97;;
67053;SDS011;53960;51.826;5.850;2022-09-21T04:08:25;7.40;;;1.80;;
67053;SDS011;53960;51.826;5.850;2022-09-21T04:10:50;6.10;;;1.90;;
67053;SDS011;53960;51.826;5.850;2022-09-21T04:13:16;8.35;;;2.30;;
67053;SDS011;53960;51.826;5.850;2022-09-21T04:15:41;6.80;;;2.10;;
67053;SDS011;53960;51.826;5.850;2022-09-21T04:18:07;7.77;;;2.17;;
67053;SDS011;53960;51.826;5.850;2022-09-21T04:20:32;7.00;;;1.70;;
67053;SDS011;53960;51.826;5.850;2022-09-21T04:22:57;8.17;;;1.93;;
67053;SDS011;53960;51.826;5.850;2022-09-21T04:25:23;7.40;;;1.90;;
67053;SDS011;53960;51.826;5.850;2022-09-21T04:27:49;6.83;;;1.73;;
67053;SDS011;53960;51.826;5.850;2022-09-21T04:30:15;8.02;;;1.85;;
67053;SDS011;53960;51.826;5.850;2022-09-21T04:32:40;6.73;;;1.70;;
67053;SDS011;53960;51.826;5.850;2022-09-21T04:35:06;7.75;;;1.88;;
67053;SDS011;53960;51.826;5.850;2022-09-21T04:37:32;6.30;;;1.53;;
67053;SDS011;53960;51.826;5.850;2022-09-21T04:39:57;6.67;;;1.70;;
67053;SDS011;53960;51.826;5.850;2022-09-21T04:42:22;6.97;;;1.93;;
67053;SDS011;53960;51.826;5.850;2022-09-21T04:44:48;6.30;;;1.93;;
67053;SDS011;53960;51.826;5.850;2022-09-21T04:47:13;7.13;;;1.80;;
67053;SDS011;53960;51.826;5.850;2022-09-21T04:49:39;8.50;;;2.10;;
67053;SDS011;53960;51.826;5.850;2022-09-21T04:52:04;7.35;;;2.00;;
67053;SDS011;53960;51.826;5.850;2022-09-21T04:54:29;7.77;;;1.90;;
67053;SDS011;53960;51.826;5.850;2022-09-21T04:56:55;6.97;;;1.90;;
67053;SDS011;53960;51.826;5.850;2022-09-21T04:59:21;8.90;;;2.00;;
67053;SDS011;53960;51.826;5.850;2022-09-21T05:01:46;5.93;;;1.67;;
67053;SDS011;53960;51.826;5.850;2022-09-21T05:04:11;7.00;;;1.80;;
67053;SDS011;53960;51.826;5.850;2022-09-21T05:06:36;7.13;;;2.00;;
67053;SDS011;53960;51.826;5.850;2022-09-21T05:09:02;9.13;;;2.00;;
67053;SDS011;53960;51.826;5.850;2022-09-21T05:11:46;9.48;;;2.10;;
67053;SDS011;53960;51.826;5.850;2022-09-21T05:14:11;6.93;;;2.20;;
67053;SDS011;53960;51.826;5.850;2022-09-21T05:16:37;11.15;;;2.38;;
67053;SDS011;53960;51.826;5.850;2022-09-21T05:19:02;6.97;;;1.97;;
67053;SDS011;53960;51.826;5.850;2022-09-21T05:21:29;7.22;;;1.80;;
67053;SDS011;53960;51.826;5.850;2022-09-21T05:23:55;7.95;;;2.30;;
67053;SDS011;53960;51.826;5.850;2022-09-21T05:26:22;8.30;;;2.00;;
67053;SDS011;53960;51.826;5.850;2022-09-21T05:28:47;6.80;;;1.90;;
67053;SDS011;53960;51.826;5.850;2022-09-21T05:33:41;7.38;;;1.65;;
67053;SDS011;53960;51.826;5.850;2022-09-21T05:38:50;8.87;;;2.00;;
67053;SDS011;53960;51.826;5.850;2022-09-21T05:41:15;7.72;;;1.90;;
67053;SDS011;53960;51.826;5.850;2022-09-21T05:43:41;6.13;;;1.80;;
67053;SDS011;53960;51.826;5.850;2022-09-21T05:46:10;8.10;;;2.30;;
67053;SDS011;53960;51.826;5.850;2022-09-21T05:48:45;7.20;;;1.83;;
67053;SDS011;53960;51.826;5.850;2022-09-21T05:51:31;7.88;;;2.00;;
67053;SDS011;53960;51.826;5.850;2022-09-21T05:54:12;8.30;;;2.10;;
67053;SDS011;53960;51.826;5.850;2022-09-21T06:02:17;8.23;;;2.30;;
67053;SDS011;53960;51.826;5.850;2022-09-21T06:05:01;7.38;;;2.33;;
67053;SDS011;53960;51.826;5.850;2022-09-21T06:07:34;7.33;;;1.93;;
67053;SDS011;53960;51.826;5.850;2022-09-21T06:09:59;6.97;;;2.25;;
67053;SDS011;53960;51.826;5.850;2022-09-21T06:12:24;8.17;;;2.60;;
67053;SDS011;53960;51.826;5.850;2022-09-21T06:14:50;8.23;;;2.70;;
67053;SDS011;53960;51.826;5.850;2022-09-21T06:17:15;8.53;;;2.30;;
67053;SDS011;53960;51.826;5.850;2022-09-21T06:19:40;7.90;;;2.90;;
67053;SDS011;53960;51.826;5.850;2022-09-21T06:22:06;9.23;;;3.07;;
67053;SDS011;53960;51.826;5.850;2022-09-21T06:24:31;13.33;;;4.70;;
67053;SDS011;53960;51.826;5.850;2022-09-21T06:26:56;13.57;;;5.20;;
67053;SDS011;53960;51.826;5.850;2022-09-21T06:29:21;14.80;;;5.37;;
67053;SDS011;53960;51.826;5.850;2022-09-21T06:31:48;13.63;;;4.97;;
67053;SDS011;53960;51.826;5.850;2022-09-21T06:34:15;13.23;;;4.70;;
67053;SDS011;53960;51.826;5.850;2022-09-21T06:36:40;12.00;;;4.47;;
67053;SDS011;53960;51.826;5.850;2022-09-21T06:39:06;11.00;;;4.20;;
67053;SDS011;53960;51.826;5.850;2022-09-21T06:41:31;11.67;;;4.30;;
67053;SDS011;53960;51.826;5.850;2022-09-21T06:43:56;9.47;;;4.03;;
67053;SDS011;53960;51.826;5.850;2022-09-21T06:46:21;12.33;;;5.13;;
67053;SDS011;53960;51.826;5.850;2022-09-21T06:48:47;12.07;;;5.18;;
67053;SDS011;53960;51.826;5.850;2022-09-21T06:51:13;11.77;;;4.83;;
67053;SDS011;53960;51.826;5.850;2022-09-21T06:53:38;11.37;;;4.67;;
67053;SDS011;53960;51.826;5.850;2022-09-21T06:56:04;15.18;;;4.95;;
67053;SDS011;53960;51.826;5.850;2022-09-21T06:58:31;10.13;;;4.73;;
67053;SDS011;53960;51.826;5.850;2022-09-21T07:01:05;11.43;;;4.70;;
67053;SDS011;53960;51.826;5.850;2022-09-21T07:03:37;12.40;;;4.85;;
67053;SDS011;53960;51.826;5.850;2022-09-21T07:06:04;13.80;;;4.50;;
67053;SDS011;53960;51.826;5.850;2022-09-21T07:08:30;12.43;;;4.63;;
67053;SDS011;53960;51.826;5.850;2022-09-21T07:10:56;12.87;;;4.60;;
67053;SDS011;53960;51.826;5.850;2022-09-21T07:13:23;12.75;;;3.67;;
67053;SDS011;53960;51.826;5.850;2022-09-21T07:15:48;10.87;;;3.30;;
67053;SDS011;53960;51.826;5.850;2022-09-21T07:18:14;10.15;;;2.90;;
67053;SDS011;53960;51.826;5.850;2022-09-21T07:20:40;8.88;;;3.10;;
67053;SDS011;53960;51.826;5.850;2022-09-21T07:23:09;10.43;;;2.90;;
67053;SDS011;53960;51.826;5.850;2022-09-21T07:25:41;9.35;;;3.10;;
67053;SDS011;53960;51.826;5.850;2022-09-21T07:28:08;9.13;;;3.30;;
67053;SDS011;53960;51.826;5.850;2022-09-21T07:30:34;11.10;;;3.17;;
67053;SDS011;53960;51.826;5.850;2022-09-21T07:33:00;10.55;;;3.03;;
67053;SDS011;53960;51.826;5.850;2022-09-21T07:35:25;9.73;;;3.00;;
67053;SDS011;53960;51.826;5.850;2022-09-21T07:37:51;8.68;;;2.90;;
67053;SDS011;53960;51.826;5.850;2022-09-21T07:40:16;10.00;;;3.00;;
67053;SDS011;53960;51.826;5.850;2022-09-21T07:42:41;9.17;;;3.03;;
67053;SDS011;53960;51.826;5.850;2022-09-21T07:45:09;9.13;;;2.63;;
67053;SDS011;53960;51.826;5.850;2022-09-21T07:47:34;9.75;;;2.42;;
67053;SDS011;53960;51.826;5.850;2022-09-21T07:50:00;8.97;;;2.40;;
67053;SDS011;53960;51.826;5.850;2022-09-21T07:52:26;7.67;;;2.17;;
67053;SDS011;53960;51.826;5.850;2022-09-21T07:54:51;11.65;;;2.30;;
67053;SDS011;53960;51.826;5.850;2022-09-21T07:57:16;8.20;;;2.30;;
67053;SDS011;53960;51.826;5.850;2022-09-21T08:00:00;8.82;;;1.83;;
67053;SDS011;53960;51.826;5.850;2022-09-21T08:02:26;10.20;;;2.30;;
67053;SDS011;53960;51.826;5.850;2022-09-21T08:04:51;8.30;;;2.20;;
67053;SDS011;53960;51.826;5.850;2022-09-21T08:07:18;8.10;;;2.17;;
67053;SDS011;53960;51.826;5.850;2022-09-21T08:09:43;9.43;;;1.80;;
67053;SDS011;53960;51.826;5.850;2022-09-21T08:12:09;7.13;;;1.80;;
67053;SDS011;53960;51.826;5.850;2022-09-21T08:14:37;8.88;;;1.70;;
67053;SDS011;53960;51.826;5.850;2022-09-21T08:17:03;7.40;;;1.03;;
67053;SDS011;53960;51.826;5.850;2022-09-21T08:19:28;6.33;;;1.10;;
67053;SDS011;53960;51.826;5.850;2022-09-21T08:21:53;7.27;;;1.50;;
67053;SDS011;53960;51.826;5.850;2022-09-21T08:24:19;7.60;;;1.30;;
67053;SDS011;53960;51.826;5.850;2022-09-21T08:26:44;6.78;;;1.75;;
67053;SDS011;53960;51.826;5.850;2022-09-21T08:29:10;8.13;;;1.13;;
67053;SDS011;53960;51.826;5.850;2022-09-21T08:31:38;7.50;;;1.20;;
67053;SDS011;53960;51.826;5.850;2022-09-21T08:34:03;8.27;;;1.50;;
67053;SDS011;53960;51.826;5.850;2022-09-21T08:36:29;7.33;;;1.40;;
67053;SDS011;53960;51.826;5.850;2022-09-21T08:38:54;7.43;;;1.30;;
67053;SDS011;53960;51.826;5.850;2022-09-21T08:44:51;6.60;;;1.20;;
67053;SDS011;53960;51.826;5.850;2022-09-21T08:47:01;9.25;;;1.30;;
67053;SDS011;53960;51.826;5.850;2022-09-21T08:49:39;7.97;;;1.30;;
67053;SDS011;53960;51.826;5.850;2022-09-21T08:52:14;4.10;;;0.70;;
67053;SDS011;53960;51.826;5.850;2022-09-21T08:57:16;8.15;;;1.48;;
67053;SDS011;53960;51.826;5.850;2022-09-21T08:59:44;8.20;;;1.30;;
67053;SDS011;53960;51.826;5.850;2022-09-21T09:02:21;6.57;;;1.05;;
67053;SDS011;53960;51.826;5.850;2022-09-21T09:14:07;6.97;;;1.65;;
67053;SDS011;53960;51.826;5.850;2022-09-21T09:19:40;7.33;;;1.10;;
67053;SDS011;53960;51.826;5.850;2022-09-21T09:22:13;7.90;;;1.00;;
67053;SDS011;53960;51.826;5.850;2022-09-21T09:24:46;5.65;;;0.90;;
67053;SDS011;53960;51.826;5.850;2022-09-21T09:27:16;5.85;;;0.90;;
67053;SDS011;53960;51.826;5.850;2022-09-21T09:32:36;7.37;;;1.10;;
67053;SDS011;53960;51.826;5.850;2022-09-21T09:35:15;7.30;;;1.08;;
67053;SDS011;53960;51.826;5.850;2022-09-21T09:37:41;6.55;;;1.13;;
67053;SDS011;53960;51.826;5.850;2022-09-21T09:40:10;5.93;;;1.00;;
67053;SDS011;53960;51.826;5.850;2022-09-21T09:50:47;5.97;;;1.10;;
67053;SDS011;53960;51.826;5.850;2022-09-21T09:53:16;7.97;;;1.10;;
67053;SDS011;53960;51.826;5.850;2022-09-21T09:55:45;6.28;;;1.05;;
67053;SDS011;53960;51.826;5.850;2022-09-21T09:58:19;7.38;;;0.90;;
67053;SDS011;53960;51.826;5.850;2022-09-21T10:01:08;6.93;;;0.98;;
67053;SDS011;53960;51.826;5.850;2022-09-21T10:04:08;7.00;;;0.90;;
67053;SDS011;53960;51.826;5.850;2022-09-21T10:06:34;7.80;;;1.00;;
67053;SDS011;53960;51.826;5.850;2022-09-21T10:09:00;5.05;;;0.73;;
67053;SDS011;53960;51.826;5.850;2022-09-21T10:11:41;5.25;;;1.13;;
67053;SDS011;53960;51.826;5.850;2022-09-21T10:14:06;5.97;;;1.00;;
67053;SDS011;53960;51.826;5.850;2022-09-21T10:16:38;7.13;;;1.10;;
67053;SDS011;53960;51.826;5.850;2022-09-21T10:19:04;5.77;;;0.87;;
67053;SDS011;53960;51.826;5.850;2022-09-21T10:21:34;9.25;;;1.20;;
67053;SDS011;53960;51.826;5.850;2022-09-21T10:24:02;5.00;;;0.88;;
67053;SDS011;53960;51.826;5.850;2022-09-21T10:26:39;6.88;;;1.10;;
67053;SDS011;53960;51.826;5.850;2022-09-21T10:29:21;8.13;;;1.07;;
67053;SDS011;53960;51.826;5.850;2022-09-21T10:31:55;6.68;;;1.00;;
67053;SDS011;53960;51.826;5.850;2022-09-21T10:34:22;6.18;;;1.05;;
67053;SDS011;53960;51.826;5.850;2022-09-21T10:36:50;4.75;;;0.90;;
67053;SDS011;53960;51.826;5.850;2022-09-21T10:39:21;8.07;;;1.10;;
67053;SDS011;53960;51.826;5.850;2022-09-21T10:41:50;5.70;;;0.93;;
67053;SDS011;53960;51.826;5.850;2022-09-21T10:44:37;5.78;;;0.90;;
67053;SDS011;53960;51.826;5.850;2022-09-21T10:49:45;7.90;;;1.40;;
67053;SDS011;53960;51.826;5.850;2022-09-21T10:52:14;6.20;;;0.90;;
67053;SDS011;53960;51.826;5.850;2022-09-21T10:54:40;5.90;;;0.90;;
67053;SDS011;53960;51.826;5.850;2022-09-21T10:57:07;6.57;;;0.70;;
67053;SDS011;53960;51.826;5.850;2022-09-21T10:59:38;4.88;;;0.60;;
67053;SDS011;53960;51.826;5.850;2022-09-21T11:02:22;5.07;;;0.87;;
67053;SDS011;53960;51.826;5.850;2022-09-21T11:04:52;5.35;;;0.90;;
67053;SDS011;53960;51.826;5.850;2022-09-21T11:07:26;5.45;;;1.00;;
67053;SDS011;53960;51.826;5.850;2022-09-21T11:10:42;6.88;;;0.90;;
67053;SDS011;53960;51.826;5.850;2022-09-21T11:15:48;4.97;;;0.70;;
67053;SDS011;53960;51.826;5.850;2022-09-21T11:18:23;5.30;;;0.80;;
67053;SDS011;53960;51.826;5.850;2022-09-21T11:26:52;4.93;;;0.93;;
67053;SDS011;53960;51.826;5.850;2022-09-21T11:43:19;6.13;;;0.90;;
67053;SDS011;53960;51.826;5.850;2022-09-21T12:02:41;6.50;;;0.90;;
67053;SDS011;53960;51.826;5.850;2022-09-21T12:05:29;6.30;;;0.80;;
67053;SDS011;53960;51.826;5.850;2022-09-21T12:08:12;5.97;;;0.90;;
67053;SDS011;53960;51.826;5.850;2022-09-21T12:13:46;4.78;;;0.80;;
67053;SDS011;53960;51.826;5.850;2022-09-21T12:19:26;5.75;;;1.15;;
67053;SDS011;53960;51.826;5.850;2022-09-21T12:27:47;4.30;;;0.80;;
67053;SDS011;53960;51.826;5.850;2022-09-21T12:30:19;5.20;;;0.80;;
67053;SDS011;53960;51.826;5.850;2022-09-21T12:35:40;6.05;;;0.70;;
67053;SDS011;53960;51.826;5.850;2022-09-21T12:46:43;10.73;;;1.20;;
67053;SDS011;53960;51.826;5.850;2022-09-21T12:49:33;6.68;;;1.08;;
67053;SDS011;53960;51.826;5.850;2022-09-21T12:52:02;6.07;;;1.00;;
67053;SDS011;53960;51.826;5.850;2022-09-21T12:54:42;6.45;;;0.80;;
67053;SDS011;53960;51.826;5.850;2022-09-21T13:00:09;4.97;;;0.85;;
67053;SDS011;53960;51.826;5.850;2022-09-21T13:02:45;5.10;;;2.55;;
67053;SDS011;53960;51.826;5.850;2022-09-21T13:08:01;5.13;;;0.80;;
67053;SDS011;53960;51.826;5.850;2022-09-21T13:10:44;4.07;;;0.70;;
67053;SDS011;53960;51.826;5.850;2022-09-21T13:13:28;5.22;;;0.90;;
67053;SDS011;53960;51.826;5.850;2022-09-21T13:16:31;4.88;;;0.80;;
67053;SDS011;53960;51.826;5.850;2022-09-21T13:21:37;4.38;;;0.70;;
67053;SDS011;53960;51.826;5.850;2022-09-21T13:24:04;5.43;;;1.02;;
67053;SDS011;53960;51.826;5.850;2022-09-21T13:36:41;4.17;;;0.70;;
67053;SDS011;53960;51.826;5.850;2022-09-21T13:41:32;5.50;;;1.00;;
67053;SDS011;53960;51.826;5.850;2022-09-21T13:44:01;3.88;;;0.88;;
67053;SDS011;53960;51.826;5.850;2022-09-21T13:52:17;7.07;;;1.00;;
67053;SDS011;53960;51.826;5.850;2022-09-21T13:57:03;7.57;;;0.93;;
67053;SDS011;53960;51.826;5.850;2022-09-21T13:59:39;5.38;;;0.90;;
67053;SDS011;53960;51.826;5.850;2022-09-21T14:04:49;7.00;;;0.80;;
67053;SDS011;53960;51.826;5.850;2022-09-21T14:07:15;8.00;;;1.10;;
67053;SDS011;53960;51.826;5.850;2022-09-21T14:09:50;6.25;;;1.20;;
67053;SDS011;53960;51.826;5.850;2022-09-21T14:12:20;6.05;;;1.00;;
67053;SDS011;53960;51.826;5.850;2022-09-21T14:17:37;5.32;;;0.90;;
67053;SDS011;53960;51.826;5.850;2022-09-21T14:20:05;5.32;;;1.00;;
67053;SDS011;53960;51.826;5.850;2022-09-21T14:25:55;4.57;;;0.88;;
67053;SDS011;53960;51.826;5.850;2022-09-21T14:28:36;4.03;;;0.80;;
67053;SDS011;53960;51.826;5.850;2022-09-21T14:31:07;6.30;;;0.90;;
67053;SDS011;53960;51.826;5.850;2022-09-21T14:33:53;4.63;;;0.80;;
67053;SDS011;53960;51.826;5.850;2022-09-21T14:36:25;6.05;;;0.93;;
67053;SDS011;53960;51.826;5.850;2022-09-21T14:39:00;5.60;;;0.80;;
67053;SDS011;53960;51.826;5.850;2022-09-21T14:41:31;5.20;;;0.90;;
67053;SDS011;53960;51.826;5.850;2022-09-21T14:44:02;7.18;;;1.08;;
67053;SDS011;53960;51.826;5.850;2022-09-21T15:02:38;5.53;;;1.00;;
67053;SDS011;53960;51.826;5.850;2022-09-21T15:11:42;5.47;;;1.00;;
67053;SDS011;53960;51.826;5.850;2022-09-21T15:16:51;4.80;;;1.00;;
67053;SDS011;53960;51.826;5.850;2022-09-21T15:21:45;6.00;;;0.93;;
67053;SDS011;53960;51.826;5.850;2022-09-21T15:24:17;7.18;;;1.00;;
67053;SDS011;53960;51.826;5.850;2022-09-21T15:29:36;5.75;;;1.10;;
67053;SDS011;53960;51.826;5.850;2022-09-21T15:32:02;5.32;;;0.77;;
67053;SDS011;53960;51.826;5.850;2022-09-21T15:34:30;4.47;;;0.87;;
67053;SDS011;53960;51.826;5.850;2022-09-21T15:37:05;7.22;;;1.40;;
67053;SDS011;53960;51.826;5.850;2022-09-21T15:39:37;5.53;;;0.80;;
67053;SDS011;53960;51.826;5.850;2022-09-21T15:44:33;6.60;;;0.90;;
67053;SDS011;53960;51.826;5.850;2022-09-21T15:47:00;3.47;;;0.70;;
67053;SDS011;53960;51.826;5.850;2022-09-21T15:49:28;6.80;;;1.10;;
67053;SDS011;53960;51.826;5.850;2022-09-21T15:51:54;4.55;;;0.95;;
67053;SDS011;53960;51.826;5.850;2022-09-21T15:56:56;4.80;;;1.30;;
67053;SDS011;53960;51.826;5.850;2022-09-21T15:59:23;5.60;;;1.00;;
67053;SDS011;53960;51.826;5.850;2022-09-21T16:01:50;5.43;;;1.10;;
67053;SDS011;53960;51.826;5.850;2022-09-21T16:04:18;5.72;;;1.20;;
67053;SDS011;53960;51.826;5.850;2022-09-21T16:07:04;6.32;;;1.10;;
67053;SDS011;53960;51.826;5.850;2022-09-21T16:09:38;6.20;;;1.40;;
67053;SDS011;53960;51.826;5.850;2022-09-21T16:14:50;5.15;;;1.35;;
67053;SDS011;53960;51.826;5.850;2022-09-21T16:22:22;7.07;;;1.60;;
67053;SDS011;53960;51.826;5.850;2022-09-21T16:24:53;6.30;;;1.60;;
67053;SDS011;53960;51.826;5.850;2022-09-21T16:27:24;6.32;;;1.35;;
67053;SDS011;53960;51.826;5.850;2022-09-21T16:29:51;8.73;;;1.60;;
67053;SDS011;53960;51.826;5.850;2022-09-21T16:35:20;5.60;;;1.20;;
67053;SDS011;53960;51.826;5.850;2022-09-21T16:37:52;6.63;;;1.65;;
67053;SDS011;53960;51.826;5.850;2022-09-21T16:40:21;8.65;;;1.30;;
67053;SDS011;53960;51.826;5.850;2022-09-21T16:42:47;8.00;;;1.50;;
67053;SDS011;53960;51.826;5.850;2022-09-21T16:45:15;6.77;;;1.43;;
67053;SDS011;53960;51.826;5.850;2022-09-21T16:47:55;6.13;;;1.70;;
67053;SDS011;53960;51.826;5.850;2022-09-21T16:50:21;7.80;;;1.83;;
67053;SDS011;53960;51.826;5.850;2022-09-21T16:52:48;7.30;;;1.70;;
67053;SDS011;53960;51.826;5.850;2022-09-21T16:55:16;6.85;;;1.95;;
67053;SDS011;53960;51.826;5.850;2022-09-21T16:57:42;9.27;;;2.25;;
67053;SDS011;53960;51.826;5.850;2022-09-21T17:00:13;8.00;;;2.00;;
67053;SDS011;53960;51.826;5.850;2022-09-21T17:02:44;7.10;;;1.90;;
67053;SDS011;53960;51.826;5.850;2022-09-21T17:05:09;7.95;;;2.00;;
67053;SDS011;53960;51.826;5.850;2022-09-21T17:07:37;12.60;;;3.40;;
67053;SDS011;53960;51.826;5.850;2022-09-21T17:10:08;12.02;;;3.80;;
67053;SDS011;53960;51.826;5.850;2022-09-21T17:12:36;12.03;;;3.90;;
67053;SDS011;53960;51.826;5.850;2022-09-21T17:15:02;11.52;;;3.90;;
67053;SDS011;53960;51.826;5.850;2022-09-21T17:17:28;13.13;;;3.97;;
67053;SDS011;53960;51.826;5.850;2022-09-21T17:19:56;13.23;;;4.10;;
67053;SDS011;53960;51.826;5.850;2022-09-21T17:22:22;10.97;;;3.47;;
67053;SDS011;53960;51.826;5.850;2022-09-21T17:24:49;8.68;;;3.13;;
67053;SDS011;53960;51.826;5.850;2022-09-21T17:27:15;9.60;;;3.17;;
67053;SDS011;53960;51.826;5.850;2022-09-21T17:29:42;9.90;;;3.20;;
67053;SDS011;53960;51.826;5.850;2022-09-21T17:32:12;9.20;;;3.00;;
67053;SDS011;53960;51.826;5.850;2022-09-21T17:34:39;14.52;;;3.47;;
67053;SDS011;53960;51.826;5.850;2022-09-21T17:37:06;8.32;;;3.78;;
67053;SDS011;53960;51.826;5.850;2022-09-21T17:39:33;8.53;;;3.20;;
67053;SDS011;53960;51.826;5.850;2022-09-21T17:42:19;10.27;;;3.45;;
67053;SDS011;53960;51.826;5.850;2022-09-21T17:44:56;10.35;;;3.53;;
67053;SDS011;53960;51.826;5.850;2022-09-21T17:47:29;9.57;;;4.10;;
67053;SDS011;53960;51.826;5.850;2022-09-21T17:49:58;10.35;;;4.00;;
67053;SDS011;53960;51.826;5.850;2022-09-21T17:52:47;12.07;;;4.30;;
67053;SDS011;53960;51.826;5.850;2022-09-21T17:55:30;9.45;;;3.90;;
67053;SDS011;53960;51.826;5.850;2022-09-21T18:03:34;8.55;;;3.20;;
67053;SDS011;53960;51.826;5.850;2022-09-21T18:06:05;9.77;;;3.67;;
67053;SDS011;53960;51.826;5.850;2022-09-21T18:08:32;10.00;;;3.20;;
67053;SDS011;53960;51.826;5.850;2022-09-21T18:11:04;9.30;;;3.17;;
67053;SDS011;53960;51.826;5.850;2022-09-21T18:17:10;8.68;;;3.35;;
67053;SDS011;53960;51.826;5.850;2022-09-21T18:22:52;9.98;;;3.30;;
67053;SDS011;53960;51.826;5.850;2022-09-21T18:25:27;9.82;;;2.80;;
67053;SDS011;53960;51.826;5.850;2022-09-21T18:27:56;8.63;;;2.80;;
67053;SDS011;53960;51.826;5.850;2022-09-21T18:30:23;7.78;;;2.90;;
67053;SDS011;53960;51.826;5.850;2022-09-21T18:38:34;8.63;;;3.13;;
67053;SDS011;53960;51.826;5.850;2022-09-21T18:46:53;9.52;;;3.97;;
67053;SDS011;53960;51.826;5.850;2022-09-21T18:53:31;11.07;;;4.57;;
67053;SDS011;53960;51.826;5.850;2022-09-21T18:55:32;10.40;;;4.80;;
67053;SDS011;53960;51.826;5.850;2022-09-21T18:58:00;10.52;;;4.90;;
67053;SDS011;53960;51.826;5.850;2022-09-21T19:00:26;11.23;;;4.95;;